createdAt,value
2023-08-06T00:00:01.889Z,6.07
2023-08-06T00:02:29.026Z,5.32
2023-08-06T00:04:56.088Z,5.28
2023-08-06T00:07:23.315Z,6.43
2023-08-06T00:09:50.456Z,6.47
2023-08-06T00:12:17.604Z,6.13
2023-08-06T00:14:44.892Z,6.47
2023-08-06T00:17:12.232Z,6.25
2023-08-06T00:19:39.379Z,6.47
2023-08-06T00:22:06.785Z,5.97
2023-08-06T00:24:34.938Z,5.75
2023-08-06T00:27:02.667Z,6.55
2023-08-06T00:29:30.011Z,6.57
2023-08-06T00:31:57.382Z,6.25
2023-08-06T00:34:24.482Z,6.65
2023-08-06T00:36:51.689Z,7.25
2023-08-06T00:39:19.389Z,6.13
2023-08-06T00:41:46.686Z,5.13
2023-08-06T00:44:13.794Z,6.18
2023-08-06T00:46:41.269Z,6.55
2023-08-06T00:49:08.979Z,6.45
2023-08-06T00:51:36.175Z,6.20
2023-08-06T00:54:04.041Z,6.67
2023-08-06T00:56:31.477Z,5.78
2023-08-06T00:58:59.121Z,7.28
2023-08-06T01:01:26.218Z,6.30
2023-08-06T01:03:55.024Z,6.90
2023-08-06T01:07:06.491Z,7.07
2023-08-06T01:09:57.077Z,6.95
2023-08-06T01:13:21.566Z,7.32
2023-08-06T01:15:55.018Z,7.00
2023-08-06T01:18:22.317Z,6.72
2023-08-06T01:20:50.882Z,6.90
2023-08-06T01:23:19.400Z,7.30
2023-08-06T01:26:39.041Z,7.20
2023-08-06T01:29:32.400Z,6.88
2023-08-06T01:32:00.211Z,6.63
2023-08-06T01:34:34.105Z,8.05
2023-08-06T01:37:02.698Z,7.40
2023-08-06T01:39:34.273Z,7.97
2023-08-06T01:42:01.405Z,7.22
2023-08-06T01:44:28.712Z,7.18
2023-08-06T01:46:55.790Z,6.93
2023-08-06T01:49:22.910Z,6.40
2023-08-06T01:51:50.352Z,7.18
2023-08-06T01:54:17.792Z,6.78
2023-08-06T01:56:44.931Z,4.72
2023-08-06T01:59:11.994Z,6.07
2023-08-06T02:01:39.102Z,6.68
2023-08-06T02:04:06.268Z,5.07
2023-08-06T02:06:33.407Z,6.60
2023-08-06T02:09:00.546Z,6.75
2023-08-06T02:11:27.691Z,6.37
2023-08-06T02:13:55.613Z,6.10
2023-08-06T02:16:22.857Z,7.47
2023-08-06T02:18:50.038Z,7.07
2023-08-06T02:21:17.209Z,7.40
2023-08-06T02:23:44.632Z,5.72
2023-08-06T02:26:11.811Z,6.50
2023-08-06T02:28:38.946Z,6.73
2023-08-06T02:31:07.846Z,6.67
2023-08-06T02:33:35.083Z,6.90
2023-08-06T02:36:07.227Z,7.68
2023-08-06T02:38:34.575Z,6.25
2023-08-06T02:41:05.031Z,6.77
2023-08-06T02:43:32.859Z,7.53
2023-08-06T02:46:01.488Z,6.78
2023-08-06T02:48:28.939Z,6.97
2023-08-06T02:51:03.118Z,8.02
2023-08-06T02:53:30.442Z,5.80
2023-08-06T02:55:57.606Z,7.53
2023-08-06T02:58:24.948Z,5.07
2023-08-06T03:01:08.263Z,6.22
2023-08-06T03:03:35.812Z,5.83
2023-08-06T03:06:03.243Z,5.15
2023-08-06T03:08:30.386Z,6.23
2023-08-06T03:10:57.482Z,7.25
2023-08-06T03:13:24.728Z,6.47
2023-08-06T03:15:58.280Z,6.50
2023-08-06T03:18:27.000Z,6.85
2023-08-06T03:20:54.450Z,6.70
2023-08-06T03:23:21.669Z,6.30
2023-08-06T03:25:48.891Z,5.80
2023-08-06T03:28:16.351Z,6.40
2023-08-06T03:30:43.727Z,6.50
2023-08-06T03:33:10.940Z,6.00
2023-08-06T03:35:38.240Z,5.70
2023-08-06T03:38:05.397Z,5.50
2023-08-06T03:40:32.683Z,5.05
2023-08-06T03:42:59.800Z,5.03
2023-08-06T03:45:26.911Z,4.70
2023-08-06T03:47:54.250Z,5.00
2023-08-06T03:50:21.391Z,5.80
2023-08-06T03:52:48.494Z,5.47
2023-08-06T03:55:15.716Z,5.57
2023-08-06T03:57:42.879Z,5.43
2023-08-06T04:00:10.824Z,5.20
2023-08-06T04:02:37.995Z,4.67
2023-08-06T04:05:05.584Z,4.70
2023-08-06T04:07:32.786Z,4.63
2023-08-06T04:10:03.847Z,5.47
2023-08-06T04:12:32.265Z,5.40
2023-08-06T04:15:00.445Z,5.43
2023-08-06T04:17:27.728Z,5.07
2023-08-06T04:19:56.263Z,4.97
2023-08-06T04:22:23.409Z,4.93
2023-08-06T04:24:50.575Z,5.60
2023-08-06T04:27:20.284Z,5.47
2023-08-06T04:29:47.391Z,5.57
2023-08-06T04:32:14.629Z,5.10
2023-08-06T04:34:41.791Z,5.35
2023-08-06T04:37:09.041Z,5.45
2023-08-06T04:39:36.164Z,5.27
2023-08-06T04:42:03.590Z,4.90
2023-08-06T04:44:30.761Z,5.28
2023-08-06T04:46:57.877Z,5.20
2023-08-06T04:49:26.510Z,4.72
2023-08-06T04:51:53.746Z,5.00
2023-08-06T04:54:21.033Z,5.37
2023-08-06T04:56:48.227Z,5.25
2023-08-06T04:59:15.306Z,5.00
2023-08-06T05:01:42.554Z,4.68
2023-08-06T05:04:09.776Z,5.40
2023-08-06T05:06:39.314Z,4.93
2023-08-06T05:09:07.291Z,5.35
2023-08-06T05:11:34.590Z,4.93
2023-08-06T05:14:01.735Z,4.50
2023-08-06T05:16:29.220Z,5.10
2023-08-06T05:18:56.396Z,5.07
2023-08-06T05:21:23.583Z,5.10
2023-08-06T05:23:50.700Z,4.23
2023-08-06T05:26:19.628Z,3.65
2023-08-06T05:28:46.989Z,3.70
2023-08-06T05:31:14.651Z,4.70
2023-08-06T05:33:41.861Z,4.40
2023-08-06T05:36:09.038Z,4.37
2023-08-06T05:38:39.177Z,4.10
2023-08-06T05:41:06.312Z,4.53
2023-08-06T05:43:33.454Z,3.40
2023-08-06T05:46:00.651Z,4.83
2023-08-06T05:48:28.947Z,5.00
2023-08-06T05:50:56.194Z,4.70
2023-08-06T05:53:23.384Z,5.80
2023-08-06T05:55:51.165Z,5.30
2023-08-06T05:58:18.513Z,5.13
2023-08-06T06:00:46.616Z,5.07
2023-08-06T06:03:13.750Z,5.90
2023-08-06T06:05:43.171Z,5.00
2023-08-06T06:08:10.284Z,5.38
2023-08-06T06:10:37.525Z,6.18
2023-08-06T06:13:04.704Z,4.95
2023-08-06T06:15:32.140Z,6.60
2023-08-06T06:17:59.338Z,8.65
2023-08-06T06:20:26.559Z,8.20
2023-08-06T06:22:53.717Z,6.10
2023-08-06T06:25:20.804Z,7.20
2023-08-06T06:27:47.908Z,6.25
2023-08-06T06:30:15.493Z,5.20
2023-08-06T06:32:42.688Z,5.72
2023-08-06T06:35:11.088Z,8.75
2023-08-06T06:37:38.186Z,8.27
2023-08-06T06:40:06.593Z,8.32
2023-08-06T06:42:33.833Z,8.40
2023-08-06T06:45:01.010Z,8.95
2023-08-06T06:47:28.231Z,8.25
2023-08-06T06:49:55.405Z,9.60
2023-08-06T06:52:22.542Z,10.05
2023-08-06T06:54:49.723Z,9.63
2023-08-06T06:57:16.868Z,9.38
2023-08-06T06:59:44.049Z,10.32
2023-08-06T07:02:11.108Z,10.10
2023-08-06T07:04:38.231Z,10.68
2023-08-06T07:07:05.887Z,10.70
2023-08-06T07:09:33.067Z,9.82
2023-08-06T07:12:00.311Z,10.27
2023-08-06T07:14:27.720Z,9.50
2023-08-06T07:16:55.032Z,11.02
2023-08-06T07:19:22.481Z,9.50
2023-08-06T07:21:49.664Z,8.43
2023-08-06T07:24:16.921Z,8.23
2023-08-06T07:26:44.076Z,9.65
2023-08-06T07:29:11.285Z,10.75
2023-08-06T07:31:38.656Z,9.98
2023-08-06T07:34:05.975Z,10.48
2023-08-06T07:36:33.385Z,11.15
2023-08-06T07:39:00.969Z,10.40
2023-08-06T07:41:28.146Z,8.75
2023-08-06T07:43:55.449Z,10.15
2023-08-06T07:46:22.697Z,9.15
2023-08-06T07:48:50.191Z,7.07
2023-08-06T07:51:17.530Z,8.40
2023-08-06T07:53:46.262Z,7.95
2023-08-06T07:56:13.436Z,7.35
2023-08-06T07:58:41.327Z,8.35
2023-08-06T08:01:08.689Z,8.57
2023-08-06T08:03:36.032Z,9.85
2023-08-06T08:06:03.389Z,8.88
2023-08-06T08:08:30.509Z,8.75
2023-08-06T08:10:57.890Z,8.35
2023-08-06T08:13:25.471Z,9.00
2023-08-06T08:16:00.356Z,9.20
2023-08-06T08:18:28.232Z,9.65
2023-08-06T08:20:55.518Z,11.43
2023-08-06T08:23:23.143Z,10.82
2023-08-06T08:25:58.402Z,10.85
2023-08-06T08:28:26.380Z,11.07
2023-08-06T08:30:53.582Z,10.75
2023-08-06T08:33:22.616Z,12.65
2023-08-06T08:35:49.736Z,13.07
2023-08-06T08:38:16.902Z,13.57
2023-08-06T08:40:55.226Z,13.48
2023-08-06T08:43:24.406Z,13.15
2023-08-06T08:45:56.094Z,10.60
2023-08-06T08:48:23.684Z,11.73
2023-08-06T08:50:51.422Z,13.13
2023-08-06T08:53:19.870Z,12.77
2023-08-06T08:55:50.194Z,13.57
2023-08-06T08:58:17.674Z,12.48
2023-08-06T09:00:46.466Z,13.27
2023-08-06T09:03:14.294Z,11.00
2023-08-06T09:05:47.544Z,12.27
2023-08-06T09:08:25.595Z,13.63
2023-08-06T09:10:53.576Z,13.15
2023-08-06T09:13:22.361Z,13.30
2023-08-06T09:15:51.088Z,12.50
2023-08-06T09:18:30.291Z,12.32
2023-08-06T09:20:59.126Z,12.05
2023-08-06T09:23:32.029Z,12.70
2023-08-06T09:26:00.289Z,11.40
2023-08-06T09:28:44.352Z,12.10
2023-08-06T09:31:11.772Z,12.10
2023-08-06T09:33:41.690Z,11.88
2023-08-06T09:36:12.532Z,12.00
2023-08-06T09:38:43.743Z,11.45
2023-08-06T09:41:11.088Z,10.68
2023-08-06T09:43:44.783Z,9.95
2023-08-06T09:46:17.423Z,10.55
2023-08-06T09:48:49.227Z,10.10
2023-08-06T09:51:16.724Z,12.63
2023-08-06T09:53:44.824Z,11.82
2023-08-06T09:56:14.031Z,9.20
2023-08-06T09:58:41.479Z,12.27
2023-08-06T10:01:09.147Z,9.95
2023-08-06T10:03:37.880Z,9.45
2023-08-06T10:06:08.052Z,10.60
2023-08-06T10:08:35.425Z,9.55
2023-08-06T10:11:05.261Z,10.23
2023-08-06T10:13:34.956Z,10.07
2023-08-06T10:16:06.564Z,9.63
2023-08-06T10:18:36.721Z,10.18
2023-08-06T10:21:08.393Z,9.45
2023-08-06T10:23:41.382Z,10.43
2023-08-06T10:26:09.433Z,9.75
2023-08-06T10:28:41.010Z,8.90
2023-08-06T10:31:08.222Z,9.02
2023-08-06T10:33:49.209Z,9.27
2023-08-06T10:36:16.926Z,11.00
2023-08-06T10:38:51.695Z,7.45
2023-08-06T10:41:30.531Z,7.45
2023-08-06T10:44:11.745Z,7.95
2023-08-06T10:46:39.938Z,6.38
2023-08-06T10:49:08.448Z,8.35
2023-08-06T10:51:38.996Z,9.20
2023-08-06T10:54:06.719Z,8.43
2023-08-06T10:56:43.211Z,9.38
2023-08-06T10:59:11.953Z,9.13
2023-08-06T11:01:40.194Z,9.02
2023-08-06T11:04:08.294Z,8.77
2023-08-06T11:06:35.522Z,9.40
2023-08-06T11:09:03.442Z,10.00
2023-08-06T11:11:30.627Z,9.60
2023-08-06T11:14:00.653Z,9.50
2023-08-06T11:16:28.684Z,9.43
2023-08-06T11:18:57.481Z,9.30
2023-08-06T11:21:25.879Z,9.50
2023-08-06T11:23:54.420Z,10.70
2023-08-06T11:26:25.026Z,9.70
2023-08-06T11:28:57.138Z,10.90
2023-08-06T11:31:28.036Z,9.50
2023-08-06T11:33:56.058Z,9.27
2023-08-06T11:36:43.803Z,9.48
2023-08-06T11:39:10.939Z,10.02
2023-08-06T11:41:41.955Z,10.23
2023-08-06T11:44:14.407Z,10.60
2023-08-06T11:46:57.733Z,10.40
2023-08-06T11:49:51.038Z,11.55
2023-08-06T11:52:25.913Z,10.35
2023-08-06T11:55:11.688Z,11.48
2023-08-06T11:57:43.434Z,10.57
2023-08-06T12:00:15.554Z,10.82
2023-08-06T12:02:45.905Z,10.98
2023-08-06T12:05:27.507Z,11.05
2023-08-06T12:08:02.121Z,10.82
2023-08-06T12:10:33.025Z,11.02
2023-08-06T12:13:01.198Z,10.40
2023-08-06T12:15:28.963Z,10.25
2023-08-06T12:17:57.514Z,11.05
2023-08-06T12:20:24.720Z,10.52
2023-08-06T12:22:54.254Z,8.23
2023-08-06T12:25:21.470Z,9.32
2023-08-06T12:27:48.685Z,9.43
2023-08-06T12:30:16.021Z,9.65
2023-08-06T12:32:45.187Z,9.82
2023-08-06T12:35:12.408Z,9.75
2023-08-06T12:37:39.897Z,10.13
2023-08-06T12:40:28.561Z,10.70
2023-08-06T12:42:55.273Z,10.15
2023-08-06T12:45:23.018Z,10.32
2023-08-06T12:47:50.939Z,9.93
2023-08-06T12:50:18.785Z,9.75
2023-08-06T12:52:46.374Z,8.43
2023-08-06T12:55:13.520Z,8.65
2023-08-06T12:57:56.752Z,8.10
2023-08-06T13:00:26.813Z,8.23
2023-08-06T13:02:54.378Z,7.65
2023-08-06T13:05:21.871Z,8.07
2023-08-06T13:07:49.037Z,8.32
2023-08-06T13:10:16.270Z,7.53
2023-08-06T13:12:45.189Z,7.60
2023-08-06T13:15:12.431Z,8.35
2023-08-06T13:17:39.659Z,7.28
2023-08-06T13:20:08.012Z,6.70
2023-08-06T13:22:35.107Z,7.00
2023-08-06T13:25:02.225Z,6.82
2023-08-06T13:27:29.459Z,6.55
2023-08-06T13:29:56.569Z,6.13
2023-08-06T13:32:23.699Z,6.13
2023-08-06T13:34:51.176Z,5.85
2023-08-06T13:37:19.518Z,5.30
2023-08-06T13:39:46.694Z,4.40
2023-08-06T13:42:13.819Z,5.32
2023-08-06T13:44:40.939Z,5.37
2023-08-06T13:47:08.080Z,5.32
2023-08-06T13:49:35.149Z,5.30
2023-08-06T13:52:15.772Z,5.35
2023-08-06T13:54:48.476Z,5.90
2023-08-06T13:57:15.714Z,4.50
2023-08-06T13:59:45.117Z,4.55
2023-08-06T14:02:12.697Z,4.72
2023-08-06T14:04:41.060Z,4.50
2023-08-06T14:07:08.375Z,4.30
2023-08-06T14:09:35.713Z,3.85
2023-08-06T14:12:04.188Z,3.55
2023-08-06T14:14:31.334Z,3.35
2023-08-06T14:16:59.392Z,3.88
2023-08-06T14:19:27.050Z,4.03
2023-08-06T14:21:54.724Z,3.42
2023-08-06T14:24:22.025Z,4.30
2023-08-06T14:26:49.440Z,3.90
2023-08-06T14:29:16.932Z,4.32
2023-08-06T14:31:44.092Z,3.65
2023-08-06T14:34:11.513Z,3.95
2023-08-06T14:36:39.051Z,3.90
2023-08-06T14:39:06.355Z,4.82
2023-08-06T14:41:33.773Z,4.38
2023-08-06T14:44:01.350Z,3.95
2023-08-06T14:46:28.617Z,4.60
2023-08-06T14:48:55.724Z,4.63
2023-08-06T14:51:23.517Z,4.70
2023-08-06T14:53:50.680Z,5.15
2023-08-06T14:56:17.847Z,5.32
2023-08-06T14:58:45.068Z,4.90
2023-08-06T15:01:13.724Z,5.00
2023-08-06T15:03:41.001Z,5.10
2023-08-06T15:06:08.968Z,5.40
2023-08-06T15:08:36.228Z,5.38
2023-08-06T15:11:03.996Z,5.70
2023-08-06T15:13:31.544Z,5.97
2023-08-06T15:15:58.691Z,6.07
2023-08-06T15:18:25.865Z,4.18
2023-08-06T15:20:53.138Z,4.40
2023-08-06T15:23:20.838Z,4.20
2023-08-06T15:25:48.225Z,4.88
2023-08-06T15:28:15.460Z,4.15
2023-08-06T15:30:51.582Z,4.68
2023-08-06T15:33:22.274Z,4.60
2023-08-06T15:35:50.408Z,2.93
2023-08-06T15:38:17.513Z,2.90
2023-08-06T15:40:46.626Z,3.15
2023-08-06T15:43:14.268Z,2.85
2023-08-06T15:45:41.385Z,3.22
2023-08-06T15:48:10.248Z,3.30
2023-08-06T15:50:40.559Z,3.45
2023-08-06T15:53:07.987Z,3.60
2023-08-06T15:55:38.390Z,3.30
2023-08-06T15:58:07.104Z,3.88
2023-08-06T16:00:34.804Z,2.90
2023-08-06T16:03:03.765Z,2.90
2023-08-06T16:05:32.061Z,3.50
2023-08-06T16:07:59.935Z,3.13
2023-08-06T16:10:27.060Z,3.67
2023-08-06T16:12:54.226Z,3.67
2023-08-06T16:15:21.334Z,3.88
2023-08-06T16:17:48.560Z,3.88
2023-08-06T16:20:15.731Z,3.20
2023-08-06T16:22:43.488Z,3.13
2023-08-06T16:25:15.631Z,2.10
2023-08-06T16:27:42.859Z,2.17
2023-08-06T16:30:11.042Z,2.38
2023-08-06T16:32:38.582Z,2.70
2023-08-06T16:35:07.893Z,2.35
2023-08-06T16:37:35.145Z,2.80
2023-08-06T16:40:04.872Z,2.60
2023-08-06T16:42:31.998Z,2.70
2023-08-06T16:44:59.318Z,2.60
2023-08-06T16:47:26.682Z,2.58
2023-08-06T16:49:53.974Z,2.28
2023-08-06T16:52:21.172Z,2.28
2023-08-06T16:54:50.291Z,2.33
2023-08-06T16:57:17.393Z,2.33
2023-08-06T16:59:44.533Z,2.10
2023-08-06T17:02:11.923Z,1.80
2023-08-06T17:04:39.150Z,2.33
2023-08-06T17:07:06.931Z,2.30
2023-08-06T17:09:34.046Z,2.23
2023-08-06T17:12:01.282Z,1.53
2023-08-06T17:14:30.672Z,1.80
2023-08-06T17:16:58.207Z,1.37
2023-08-06T17:19:25.866Z,8.40
2023-08-06T17:21:53.059Z,1.60
2023-08-06T17:24:20.267Z,1.90
2023-08-06T17:26:47.722Z,1.70
2023-08-06T17:29:15.064Z,1.43
2023-08-06T17:31:42.241Z,1.70
2023-08-06T17:34:09.425Z,1.90
2023-08-06T17:36:36.555Z,1.92
2023-08-06T17:39:03.674Z,2.22
2023-08-06T17:41:30.791Z,1.92
2023-08-06T17:43:58.042Z,2.00
2023-08-06T17:46:25.456Z,2.17
2023-08-06T17:48:56.251Z,2.00
2023-08-06T17:51:26.802Z,2.10
2023-08-06T17:53:54.028Z,2.20
2023-08-06T17:56:21.157Z,2.20
2023-08-06T17:58:48.307Z,2.50
2023-08-06T18:01:15.749Z,2.75
2023-08-06T18:03:44.632Z,2.17
2023-08-06T18:06:12.353Z,2.30
2023-08-06T18:08:39.652Z,2.47
2023-08-06T18:11:06.792Z,2.60
2023-08-06T18:13:34.908Z,2.80
2023-08-06T18:16:02.016Z,2.63
2023-08-06T18:18:29.363Z,2.53
2023-08-06T18:20:56.489Z,2.43
2023-08-06T18:23:23.771Z,2.70
2023-08-06T18:25:51.079Z,2.80
2023-08-06T18:28:18.197Z,2.60
2023-08-06T18:30:45.604Z,2.90
2023-08-06T18:33:12.794Z,2.70
2023-08-06T18:35:43.449Z,2.43
2023-08-06T18:38:13.237Z,2.33
2023-08-06T18:40:40.917Z,2.50
2023-08-06T18:43:11.235Z,2.50
2023-08-06T18:45:41.400Z,2.20
2023-08-06T18:48:08.816Z,2.50
2023-08-06T18:50:38.165Z,2.77
2023-08-06T18:53:05.759Z,2.77
2023-08-06T18:55:33.104Z,2.90
2023-08-06T18:58:04.428Z,2.70
2023-08-06T19:00:32.320Z,2.47
2023-08-06T19:02:59.936Z,2.60
2023-08-06T19:05:27.965Z,2.50
2023-08-06T19:07:55.078Z,2.50
2023-08-06T19:10:24.958Z,2.30
2023-08-06T19:12:52.214Z,2.40
2023-08-06T19:15:19.391Z,2.47
2023-08-06T19:17:46.545Z,2.37
2023-08-06T19:20:13.752Z,2.60
2023-08-06T19:22:40.890Z,2.30
2023-08-06T19:25:08.651Z,2.30
2023-08-06T19:27:36.731Z,2.27
2023-08-06T19:30:04.892Z,2.60
2023-08-06T19:32:32.176Z,2.23
2023-08-06T19:34:59.382Z,2.40
2023-08-06T19:37:26.522Z,2.80
2023-08-06T19:39:53.661Z,2.80
2023-08-06T19:42:20.986Z,2.60
2023-08-06T19:44:48.262Z,2.90
2023-08-06T19:47:15.523Z,2.77
2023-08-06T19:49:42.658Z,2.73
2023-08-06T19:52:09.752Z,2.43
2023-08-06T19:54:37.588Z,2.60
2023-08-06T19:57:06.860Z,2.93
2023-08-06T19:59:36.982Z,3.07
2023-08-06T20:02:04.370Z,2.67
2023-08-06T20:04:32.135Z,2.63
2023-08-06T20:07:00.368Z,2.80
2023-08-06T20:09:31.551Z,2.60
2023-08-06T20:11:59.210Z,2.43
2023-08-06T20:14:26.920Z,2.20
2023-08-06T20:16:59.910Z,2.30
2023-08-06T20:19:27.317Z,2.30
2023-08-06T20:21:54.634Z,1.83
2023-08-06T20:24:22.169Z,2.03
2023-08-06T20:26:52.886Z,2.40
2023-08-06T20:29:20.081Z,2.30
2023-08-06T20:31:47.278Z,1.93
2023-08-06T20:34:15.004Z,1.67
2023-08-06T20:36:42.168Z,2.30
2023-08-06T20:39:09.293Z,1.80
2023-08-06T20:41:36.548Z,2.47
2023-08-06T20:44:04.171Z,2.00
2023-08-06T20:46:31.685Z,2.23
2023-08-06T20:48:58.995Z,2.37
2023-08-06T20:51:26.321Z,2.00
2023-08-06T20:53:53.639Z,2.40
2023-08-06T20:56:21.582Z,2.20
2023-08-06T20:58:49.400Z,2.23
2023-08-06T21:01:16.848Z,2.33
2023-08-06T21:03:44.047Z,2.10
2023-08-06T21:06:11.292Z,1.90
2023-08-06T21:08:38.462Z,2.10
2023-08-06T21:11:06.218Z,1.90
2023-08-06T21:13:33.610Z,1.80
2023-08-06T21:16:04.457Z,2.27
2023-08-06T21:18:34.672Z,2.47
2023-08-06T21:21:08.946Z,2.37
2023-08-06T21:23:36.966Z,2.03
2023-08-06T21:26:07.044Z,1.60
2023-08-06T21:28:36.650Z,1.97
2023-08-06T21:31:13.712Z,1.50
2023-08-06T21:33:47.484Z,1.73
2023-08-06T21:36:15.017Z,1.60
2023-08-06T21:38:43.020Z,1.40
2023-08-06T21:41:16.749Z,1.53
2023-08-06T21:43:49.143Z,1.60
2023-08-06T21:46:21.185Z,1.67
2023-08-06T21:48:50.756Z,1.67
2023-08-06T21:51:20.959Z,1.50
2023-08-06T21:53:49.196Z,1.60
2023-08-06T21:56:17.715Z,1.10
2023-08-06T21:58:53.324Z,1.40
2023-08-06T22:01:42.406Z,1.07
2023-08-06T22:04:09.609Z,1.23
2023-08-06T22:06:36.702Z,1.40
2023-08-06T22:09:05.402Z,1.30
2023-08-06T22:11:32.738Z,1.60
2023-08-06T22:14:01.069Z,1.57
2023-08-06T22:16:28.276Z,1.50
2023-08-06T22:18:55.636Z,1.50
2023-08-06T22:21:23.147Z,1.27
2023-08-06T22:23:50.289Z,1.53
2023-08-06T22:26:17.513Z,1.30
2023-08-06T22:28:55.510Z,1.67
2023-08-06T22:31:27.017Z,1.70
2023-08-06T22:33:54.173Z,1.40
2023-08-06T22:36:21.452Z,1.30
2023-08-06T22:38:48.798Z,1.80
2023-08-06T22:41:16.121Z,1.63
2023-08-06T22:43:43.303Z,1.53
2023-08-06T22:46:10.536Z,1.57
2023-08-06T22:48:37.670Z,1.57
2023-08-06T22:51:04.807Z,1.47
2023-08-06T22:53:32.060Z,1.43
2023-08-06T22:56:08.301Z,1.53
2023-08-06T22:58:38.665Z,1.40
2023-08-06T23:01:06.151Z,1.83
2023-08-06T23:03:34.062Z,1.77
2023-08-06T23:06:02.370Z,1.23
2023-08-06T23:08:29.545Z,1.60
2023-08-06T23:10:57.365Z,1.50
2023-08-06T23:13:24.525Z,1.60
2023-08-06T23:15:51.732Z,1.73
2023-08-06T23:18:18.902Z,1.77
2023-08-06T23:20:46.198Z,1.70
2023-08-06T23:23:13.383Z,1.70
2023-08-06T23:25:40.530Z,1.50
2023-08-06T23:28:07.720Z,1.30
2023-08-06T23:30:35.026Z,1.83
2023-08-06T23:33:02.891Z,1.77
2023-08-06T23:35:30.265Z,1.67
2023-08-06T23:37:58.135Z,1.80
2023-08-06T23:40:25.684Z,1.90
2023-08-06T23:42:52.798Z,2.27
2023-08-06T23:45:20.033Z,2.30
2023-08-06T23:47:47.405Z,2.50
2023-08-06T23:50:16.770Z,2.30
2023-08-06T23:52:43.957Z,2.17
2023-08-06T23:55:11.601Z,2.20
2023-08-06T23:57:38.841Z,2.00
